createdAt,value
2018-06-03T00:00:13.593Z,5.17
2018-06-03T00:02:39.767Z,6.07
2018-06-03T00:05:05.938Z,5.23
2018-06-03T00:07:32.119Z,5.77
2018-06-03T00:09:58.302Z,5.77
2018-06-03T00:12:24.665Z,6.10
2018-06-03T00:14:50.842Z,5.40
2018-06-03T00:17:17.010Z,6.47
2018-06-03T00:19:43.193Z,6.10
2018-06-03T00:22:22.587Z,6.60
2018-06-03T00:24:48.770Z,6.17
2018-06-03T00:27:14.963Z,5.60
2018-06-03T00:29:41.173Z,6.03
2018-06-03T00:32:07.349Z,6.80
2018-06-03T00:34:33.513Z,6.83
2018-06-03T00:37:00.435Z,6.47
2018-06-03T00:39:26.617Z,7.37
2018-06-03T00:41:52.826Z,7.27
2018-06-03T00:44:19.753Z,6.90
2018-06-03T00:47:33.196Z,6.70
2018-06-03T00:50:00.618Z,6.57
2018-06-03T00:52:28.029Z,6.20
2018-06-03T00:54:55.428Z,6.40
2018-06-03T00:57:22.799Z,6.57
2018-06-03T00:59:50.214Z,6.23
2018-06-03T01:02:17.585Z,6.43
2018-06-03T01:04:44.953Z,6.50
2018-06-03T01:07:12.338Z,6.13
2018-06-03T01:09:39.742Z,6.33
2018-06-03T01:12:07.196Z,6.10
2018-06-03T01:14:34.566Z,6.60
2018-06-03T01:17:02.647Z,5.90
2018-06-03T01:19:30.062Z,6.60
2018-06-03T01:21:57.437Z,7.23
2018-06-03T01:24:24.850Z,6.53
2018-06-03T01:26:52.233Z,6.83
2018-06-03T01:29:19.651Z,6.50
2018-06-03T01:31:47.059Z,7.53
2018-06-03T01:34:14.453Z,6.77
2018-06-03T01:36:41.865Z,6.33
2018-06-03T01:39:09.866Z,7.00
2018-06-03T01:41:37.224Z,7.37
2018-06-03T01:44:04.590Z,7.20
2018-06-03T01:46:31.977Z,7.57
2018-06-03T01:48:59.378Z,8.33
2018-06-03T01:51:26.801Z,7.60
2018-06-03T01:53:54.182Z,6.90
2018-06-03T01:56:21.569Z,7.03
2018-06-03T01:58:48.957Z,8.27
2018-06-03T02:01:16.329Z,7.87
2018-06-03T02:03:43.722Z,8.17
2018-06-03T02:06:11.106Z,7.93
2018-06-03T02:08:38.517Z,7.47
2018-06-03T02:11:05.908Z,7.43
2018-06-03T02:13:33.313Z,8.30
2018-06-03T02:16:00.720Z,8.17
2018-06-03T02:18:28.086Z,8.67
2018-06-03T02:20:55.481Z,8.27
2018-06-03T02:23:22.841Z,8.83
2018-06-03T02:25:50.276Z,7.97
2018-06-03T02:28:17.666Z,7.63
2018-06-03T02:30:45.106Z,7.70
2018-06-03T02:33:12.511Z,8.20
2018-06-03T02:35:39.906Z,8.30
2018-06-03T02:38:07.306Z,8.40
2018-06-03T02:40:34.697Z,8.80
2018-06-03T02:43:02.054Z,8.23
2018-06-03T02:45:29.464Z,7.93
2018-06-03T02:47:56.861Z,8.70
2018-06-03T02:50:24.290Z,8.67
2018-06-03T02:52:51.707Z,7.33
2018-06-03T02:55:19.076Z,8.30
2018-06-03T02:57:46.442Z,8.03
2018-06-03T03:00:13.825Z,7.43
2018-06-03T03:02:41.216Z,7.53
2018-06-03T03:05:08.592Z,7.30
2018-06-03T03:07:35.983Z,7.40
2018-06-03T03:10:03.447Z,6.60
2018-06-03T03:12:30.829Z,6.63
2018-06-03T03:14:58.233Z,6.27
2018-06-03T03:17:25.645Z,6.33
2018-06-03T03:19:53.078Z,5.60
2018-06-03T03:22:20.449Z,5.03
2018-06-03T03:24:47.871Z,5.33
2018-06-03T03:27:15.276Z,5.20
2018-06-03T03:29:42.646Z,5.13
2018-06-03T03:32:10.055Z,5.03
2018-06-03T03:34:37.448Z,4.97
2018-06-03T03:37:04.850Z,4.90
2018-06-03T03:39:32.235Z,4.83
2018-06-03T03:41:59.618Z,4.60
2018-06-03T03:44:27.013Z,4.20
2018-06-03T03:46:54.418Z,4.60
2018-06-03T03:49:21.834Z,4.60
2018-06-03T03:51:49.222Z,4.87
2018-06-03T03:54:16.623Z,4.53
2018-06-03T03:56:44.026Z,4.53
2018-06-03T03:59:11.393Z,4.20
2018-06-03T04:01:38.770Z,4.50
2018-06-03T04:04:06.178Z,4.53
2018-06-03T04:06:33.557Z,4.30
2018-06-03T04:09:00.989Z,4.13
2018-06-03T04:11:28.505Z,4.27
2018-06-03T04:13:55.888Z,4.03
2018-06-03T04:16:23.268Z,3.90
2018-06-03T04:18:50.662Z,3.67
2018-06-03T04:21:18.114Z,4.20
2018-06-03T04:23:45.494Z,4.40
2018-06-03T04:26:12.876Z,3.83
2018-06-03T04:28:40.258Z,3.53
2018-06-03T04:31:07.634Z,3.70
2018-06-03T04:33:35.046Z,3.27
2018-06-03T04:36:02.444Z,3.77
2018-06-03T04:38:29.821Z,3.70
2018-06-03T04:40:57.210Z,3.50
2018-06-03T04:43:24.596Z,3.50
2018-06-03T04:45:52.002Z,3.23
2018-06-03T04:48:19.385Z,3.23
2018-06-03T04:50:46.766Z,3.10
2018-06-03T04:53:14.161Z,3.40
2018-06-03T04:55:41.546Z,3.13
2018-06-03T04:58:08.969Z,3.00
2018-06-03T05:00:36.350Z,3.00
2018-06-03T05:03:03.721Z,3.07
2018-06-03T05:05:31.153Z,2.73
2018-06-03T05:07:58.521Z,2.70
2018-06-03T05:10:25.897Z,2.80
2018-06-03T05:12:53.318Z,3.07
2018-06-03T05:15:20.705Z,2.50
2018-06-03T05:17:48.060Z,2.53
2018-06-03T05:20:15.474Z,2.63
2018-06-03T05:22:42.866Z,2.40
2018-06-03T05:25:10.290Z,2.60
2018-06-03T05:27:37.657Z,2.30
2018-06-03T05:30:05.192Z,2.70
2018-06-03T05:32:32.685Z,2.30
2018-06-03T05:35:00.065Z,2.30
2018-06-03T05:37:28.033Z,2.40
2018-06-03T05:39:55.433Z,2.20
2018-06-03T05:42:22.880Z,2.30
2018-06-03T05:44:50.206Z,2.30
2018-06-03T05:47:17.572Z,2.37
2018-06-03T05:49:44.973Z,2.40
2018-06-03T05:52:12.356Z,2.60
2018-06-03T05:54:39.740Z,2.30
2018-06-03T05:57:07.117Z,2.30
2018-06-03T05:59:34.512Z,2.47
2018-06-03T06:02:02.136Z,2.63
2018-06-03T06:04:29.541Z,2.30
2018-06-03T06:06:56.935Z,2.40
2018-06-03T06:09:24.310Z,2.30
2018-06-03T06:11:51.680Z,2.13
2018-06-03T06:14:19.079Z,2.43
2018-06-03T06:16:46.475Z,2.17
2018-06-03T06:19:13.885Z,2.30
2018-06-03T06:21:41.268Z,2.30
2018-06-03T06:24:08.657Z,2.10
2018-06-03T06:26:36.037Z,2.30
2018-06-03T06:29:03.444Z,2.40
2018-06-03T06:31:30.826Z,2.30
2018-06-03T06:33:58.210Z,2.30
2018-06-03T06:36:25.603Z,2.20
2018-06-03T06:38:52.988Z,2.30
2018-06-03T06:41:20.398Z,2.20
2018-06-03T06:43:47.823Z,2.30
2018-06-03T06:46:15.217Z,2.27
2018-06-03T06:48:42.602Z,2.07
2018-06-03T06:51:10.001Z,2.33
2018-06-03T06:53:37.455Z,2.40
2018-06-03T06:56:04.928Z,2.30
2018-06-03T06:58:32.626Z,2.40
2018-06-03T07:01:00.036Z,2.23
2018-06-03T07:03:27.486Z,2.17
2018-06-03T07:05:54.872Z,2.30
2018-06-03T07:08:22.315Z,2.40
2018-06-03T07:10:49.808Z,2.50
2018-06-03T07:13:17.269Z,2.30
2018-06-03T07:15:44.688Z,2.13
2018-06-03T07:18:12.119Z,2.37
2018-06-03T07:20:39.634Z,2.47
2018-06-03T07:23:07.013Z,2.17
2018-06-03T07:25:34.462Z,2.43
2018-06-03T07:28:02.102Z,2.20
2018-06-03T07:30:29.542Z,2.37
2018-06-03T07:32:56.925Z,2.50
2018-06-03T07:35:24.327Z,2.53
2018-06-03T07:37:51.726Z,2.50
2018-06-03T07:40:19.125Z,2.30
2018-06-03T07:42:46.506Z,2.60
2018-06-03T07:45:13.884Z,2.40
2018-06-03T07:47:41.274Z,2.37
2018-06-03T07:50:08.653Z,2.60
2018-06-03T07:52:36.024Z,2.70
2018-06-03T07:55:03.423Z,2.53
2018-06-03T07:57:30.777Z,2.90
2018-06-03T07:59:58.161Z,2.77
2018-06-03T08:02:25.555Z,2.60
2018-06-03T08:04:52.945Z,2.60
2018-06-03T08:07:20.368Z,2.50
2018-06-03T08:09:47.758Z,2.60
2018-06-03T08:12:15.152Z,2.60
2018-06-03T08:14:42.538Z,2.60
2018-06-03T08:17:09.937Z,2.60
2018-06-03T08:19:37.329Z,2.80
2018-06-03T08:22:04.699Z,2.60
2018-06-03T08:24:32.084Z,2.70
2018-06-03T08:26:59.442Z,2.60
2018-06-03T08:29:26.857Z,3.03
2018-06-03T08:31:54.262Z,2.93
2018-06-03T08:34:21.641Z,2.90
2018-06-03T08:36:48.996Z,2.80
2018-06-03T08:39:16.435Z,2.80
2018-06-03T08:41:43.777Z,2.87
2018-06-03T08:44:11.166Z,2.90
2018-06-03T08:46:38.572Z,2.77
2018-06-03T08:49:05.967Z,2.70
2018-06-03T08:51:33.367Z,2.97
2018-06-03T08:54:00.754Z,2.70
2018-06-03T08:56:28.150Z,2.90
2018-06-03T08:58:55.551Z,2.80
2018-06-03T09:01:22.965Z,3.23
2018-06-03T09:03:50.361Z,3.17
2018-06-03T09:06:17.754Z,3.67
2018-06-03T09:08:45.142Z,3.30
2018-06-03T09:11:12.534Z,3.30
2018-06-03T09:13:39.885Z,3.23
2018-06-03T09:16:07.291Z,3.37
2018-06-03T09:18:34.727Z,3.23
2018-06-03T09:21:02.140Z,3.37
2018-06-03T09:23:29.538Z,3.40
2018-06-03T09:25:56.931Z,3.63
2018-06-03T09:28:24.334Z,3.60
2018-06-03T09:30:56.288Z,3.20
2018-06-03T09:33:23.713Z,3.20
2018-06-03T09:35:51.105Z,3.23
2018-06-03T09:38:18.489Z,3.30
2018-06-03T09:40:45.860Z,3.53
2018-06-03T09:43:13.243Z,3.63
2018-06-03T09:45:40.632Z,3.60
2018-06-03T09:48:08.008Z,3.60
2018-06-03T09:50:35.402Z,3.80
2018-06-03T09:53:02.830Z,3.67
2018-06-03T09:55:30.220Z,3.40
2018-06-03T09:57:57.688Z,3.53
2018-06-03T10:00:27.266Z,3.70
2018-06-03T10:02:54.789Z,3.40
2018-06-03T10:05:22.169Z,3.83
2018-06-03T10:07:49.557Z,3.57
2018-06-03T10:10:16.985Z,3.93
2018-06-03T10:12:44.353Z,3.73
2018-06-03T10:15:11.746Z,4.00
2018-06-03T10:17:39.125Z,3.40
2018-06-03T10:20:06.510Z,3.77
2018-06-03T10:22:33.896Z,3.60
2018-06-03T10:25:01.257Z,4.00
2018-06-03T10:27:28.647Z,3.80
2018-06-03T10:29:56.059Z,3.93
2018-06-03T10:32:23.443Z,3.90
2018-06-03T10:34:50.844Z,3.60
2018-06-03T10:37:18.226Z,3.67
2018-06-03T10:39:45.655Z,3.80
2018-06-03T10:42:13.043Z,3.83
2018-06-03T10:44:40.436Z,4.50
2018-06-03T10:47:07.809Z,4.40
2018-06-03T10:49:35.186Z,3.80
2018-06-03T10:52:02.625Z,4.03
2018-06-03T10:54:30.087Z,4.30
2018-06-03T10:56:57.465Z,3.97
2018-06-03T10:59:24.863Z,4.10
2018-06-03T11:01:52.300Z,4.17
2018-06-03T11:04:19.662Z,3.80
2018-06-03T11:06:47.069Z,4.00
2018-06-03T11:09:14.470Z,3.77
2018-06-03T11:11:41.917Z,4.40
2018-06-03T11:14:09.326Z,4.00
2018-06-03T11:16:36.731Z,4.30
2018-06-03T11:19:04.265Z,4.30
2018-06-03T11:21:31.642Z,4.37
2018-06-03T11:23:59.187Z,3.77
2018-06-03T11:26:26.580Z,4.10
2018-06-03T11:28:53.953Z,4.10
2018-06-03T11:31:21.325Z,4.47
2018-06-03T11:33:48.755Z,4.70
2018-06-03T11:36:16.145Z,3.83
2018-06-03T11:38:43.536Z,4.10
2018-06-03T11:41:10.950Z,4.30
2018-06-03T11:43:38.355Z,4.33
2018-06-03T11:46:05.749Z,4.10
2018-06-03T11:48:33.162Z,4.23
2018-06-03T11:51:00.564Z,4.17
2018-06-03T11:53:27.958Z,3.93
2018-06-03T11:55:55.377Z,4.43
2018-06-03T11:58:43.411Z,4.50
2018-06-03T12:01:10.833Z,4.50
2018-06-03T12:03:38.255Z,4.00
2018-06-03T12:06:05.791Z,4.27
2018-06-03T12:08:33.351Z,4.20
2018-06-03T12:11:00.797Z,4.37
2018-06-03T12:13:28.981Z,4.77
2018-06-03T12:15:57.090Z,4.33
2018-06-03T12:18:24.474Z,4.40
2018-06-03T12:20:51.862Z,3.90
2018-06-03T12:23:19.245Z,4.03
2018-06-03T12:25:46.614Z,3.90
2018-06-03T12:28:14.010Z,4.00
2018-06-03T12:30:41.378Z,4.20
2018-06-03T12:33:08.787Z,4.00
2018-06-03T12:35:36.157Z,3.90
2018-06-03T12:38:03.614Z,4.00
2018-06-03T12:40:31.014Z,4.03
2018-06-03T12:42:58.418Z,4.30
2018-06-03T12:45:25.810Z,17.90
2018-06-03T12:47:53.205Z,6.77
2018-06-03T12:50:20.566Z,8.90
2018-06-03T12:52:47.925Z,5.30
2018-06-03T12:55:15.308Z,5.60
2018-06-03T12:57:42.691Z,13.83
2018-06-03T13:00:10.090Z,7.83
2018-06-03T13:02:37.466Z,6.87
2018-06-03T13:05:04.876Z,6.00
2018-06-03T13:07:32.258Z,5.67
2018-06-03T13:09:59.657Z,5.83
2018-06-03T13:12:27.044Z,5.20
2018-06-03T13:14:54.465Z,4.40
2018-06-03T13:17:21.900Z,5.10
2018-06-03T13:19:49.245Z,4.80
2018-06-03T13:22:16.637Z,4.57
2018-06-03T13:24:44.003Z,4.97
2018-06-03T13:27:11.413Z,8.70
2018-06-03T13:29:38.826Z,6.13
2018-06-03T13:32:06.199Z,5.20
2018-06-03T13:34:33.590Z,4.63
2018-06-03T13:37:00.985Z,4.90
2018-06-03T13:39:28.363Z,4.50
2018-06-03T13:41:55.789Z,4.70
2018-06-03T13:44:23.172Z,4.00
2018-06-03T13:46:50.567Z,4.00
2018-06-03T13:49:17.960Z,4.57
2018-06-03T13:51:45.308Z,4.77
2018-06-03T13:54:12.706Z,4.43
2018-06-03T13:56:40.102Z,4.50
2018-06-03T13:59:07.482Z,4.30
2018-06-03T14:01:34.866Z,4.77
2018-06-03T14:04:02.233Z,4.93
2018-06-03T14:06:29.649Z,10.27
2018-06-03T14:08:57.027Z,5.43
2018-06-03T14:11:24.417Z,4.40
2018-06-03T14:13:51.789Z,5.30
2018-06-03T14:16:19.192Z,6.00
2018-06-03T14:18:46.593Z,7.87
2018-06-03T14:21:14.014Z,5.47
2018-06-03T14:23:41.508Z,4.53
2018-06-03T14:26:08.925Z,5.33
2018-06-03T14:28:36.308Z,5.23
2018-06-03T14:31:03.717Z,7.37
2018-06-03T14:33:31.108Z,5.53
2018-06-03T14:35:58.502Z,6.63
2018-06-03T14:38:25.873Z,5.10
2018-06-03T14:40:53.255Z,5.90
2018-06-03T14:43:20.662Z,4.50
2018-06-03T14:45:48.042Z,7.03
2018-06-03T14:48:15.457Z,8.57
2018-06-03T14:50:42.929Z,4.90
2018-06-03T14:53:10.285Z,4.90
2018-06-03T14:55:37.766Z,5.00
2018-06-03T14:58:05.153Z,5.33
2018-06-03T15:00:32.490Z,4.90
2018-06-03T15:02:59.889Z,4.80
2018-06-03T15:05:28.226Z,4.80
2018-06-03T15:07:55.605Z,4.97
2018-06-03T15:10:23.001Z,4.97
2018-06-03T15:12:50.380Z,5.00
2018-06-03T15:15:17.762Z,4.60
2018-06-03T15:17:45.144Z,5.00
2018-06-03T15:20:12.528Z,5.10
2018-06-03T15:22:39.923Z,4.83
2018-06-03T15:25:07.322Z,5.03
2018-06-03T15:27:34.730Z,4.63
2018-06-03T15:30:02.125Z,4.70
2018-06-03T15:32:29.547Z,4.70
2018-06-03T15:34:57.257Z,5.13
2018-06-03T15:37:24.638Z,4.80
2018-06-03T15:39:52.016Z,4.57
2018-06-03T15:42:19.397Z,4.83
2018-06-03T15:44:46.782Z,4.37
2018-06-03T15:47:14.182Z,4.60
2018-06-03T15:49:41.573Z,4.53
2018-06-03T15:52:08.969Z,5.00
2018-06-03T15:54:36.370Z,4.77
2018-06-03T15:57:03.792Z,4.47
2018-06-03T15:59:31.178Z,4.53
2018-06-03T16:01:58.564Z,4.40
2018-06-03T16:04:25.973Z,4.13
2018-06-03T16:06:53.384Z,4.30
2018-06-03T16:09:20.798Z,4.70
2018-06-03T16:11:48.183Z,3.93
2018-06-03T16:14:15.607Z,4.23
2018-06-03T16:16:42.997Z,4.40
2018-06-03T16:19:10.426Z,4.37
2018-06-03T16:21:37.769Z,4.03
2018-06-03T16:24:05.202Z,4.40
2018-06-03T16:26:32.649Z,4.77
2018-06-03T16:29:00.042Z,4.40
2018-06-03T16:31:27.471Z,4.10
2018-06-03T16:33:54.828Z,4.37
2018-06-03T16:36:22.206Z,4.43
2018-06-03T16:38:49.600Z,4.70
2018-06-03T16:41:16.953Z,4.53
2018-06-03T16:43:44.355Z,4.23
2018-06-03T16:46:11.786Z,4.30
2018-06-03T16:48:39.216Z,4.60
2018-06-03T16:51:06.660Z,4.40
2018-06-03T16:53:34.057Z,4.30
2018-06-03T16:56:01.469Z,4.37
2018-06-03T16:58:28.885Z,4.10
2018-06-03T17:00:56.273Z,4.70
2018-06-03T17:03:23.659Z,4.60
2018-06-03T17:05:51.066Z,4.20
2018-06-03T17:08:18.441Z,4.20
2018-06-03T17:10:45.830Z,4.00
2018-06-03T17:13:13.255Z,4.13
2018-06-03T17:15:40.627Z,4.43
2018-06-03T17:18:08.001Z,4.23
2018-06-03T17:20:35.464Z,4.10
2018-06-03T17:23:02.806Z,4.47
2018-06-03T17:25:30.193Z,3.73
2018-06-03T17:27:57.564Z,4.20
2018-06-03T17:30:24.989Z,4.20
2018-06-03T17:32:52.390Z,3.67
2018-06-03T17:35:19.784Z,3.97
2018-06-03T17:37:47.185Z,4.00
2018-06-03T17:40:14.575Z,4.30
2018-06-03T17:42:41.962Z,4.30
2018-06-03T17:45:09.380Z,4.23
2018-06-03T17:47:36.773Z,3.97
2018-06-03T17:50:04.212Z,4.00
2018-06-03T17:52:31.609Z,4.00
2018-06-03T17:54:59.010Z,3.73
2018-06-03T17:57:26.418Z,3.97
2018-06-03T17:59:53.804Z,4.27
2018-06-03T18:02:21.201Z,4.17
2018-06-03T18:04:48.569Z,4.70
2018-06-03T18:07:15.953Z,3.97
2018-06-03T18:09:43.350Z,4.30
2018-06-03T18:12:10.734Z,4.57
2018-06-03T18:14:38.135Z,4.33
2018-06-03T18:17:05.585Z,4.50
2018-06-03T18:19:32.950Z,4.40
2018-06-03T18:22:00.354Z,4.30
2018-06-03T18:24:27.749Z,4.30
2018-06-03T18:26:55.162Z,4.47
2018-06-03T18:29:22.571Z,4.60
2018-06-03T18:31:49.949Z,4.30
2018-06-03T18:34:17.341Z,4.20
2018-06-03T18:36:44.738Z,4.17
2018-06-03T18:39:12.146Z,4.10
2018-06-03T18:41:39.518Z,4.50
2018-06-03T18:44:06.917Z,4.43
2018-06-03T18:46:34.306Z,4.47
2018-06-03T18:49:01.698Z,4.50
2018-06-03T18:51:29.097Z,6.53
2018-06-03T18:53:56.476Z,4.90
2018-06-03T18:56:23.889Z,4.67
2018-06-03T18:58:51.288Z,4.70
2018-06-03T19:01:18.644Z,4.90
2018-06-03T19:03:46.034Z,4.97
2018-06-03T19:06:13.432Z,4.77
2018-06-03T19:08:40.812Z,5.13
2018-06-03T19:11:08.208Z,5.10
2018-06-03T19:13:35.607Z,5.33
2018-06-03T19:16:03.030Z,5.00
2018-06-03T19:18:30.427Z,5.43
2018-06-03T19:20:57.793Z,5.20
2018-06-03T19:23:25.181Z,5.23
2018-06-03T19:25:52.566Z,4.97
2018-06-03T19:28:19.990Z,5.60
2018-06-03T19:30:47.358Z,9.63
2018-06-03T19:33:14.761Z,8.30
2018-06-03T19:35:42.162Z,11.33
2018-06-03T19:38:09.565Z,14.50
2018-06-03T19:40:36.983Z,12.47
2018-06-03T19:43:04.399Z,9.63
2018-06-03T19:45:31.818Z,8.30
2018-06-03T19:47:59.223Z,8.87
2018-06-03T19:50:26.654Z,8.87
2018-06-03T19:52:54.029Z,9.40
2018-06-03T19:55:21.405Z,8.57
2018-06-03T19:57:48.854Z,9.07
2018-06-03T20:00:16.273Z,9.30
2018-06-03T20:02:43.695Z,9.50
2018-06-03T20:05:11.070Z,10.03
2018-06-03T20:07:38.474Z,9.50
2018-06-03T20:10:05.873Z,9.50
2018-06-03T20:12:33.277Z,8.83
2018-06-03T20:15:00.669Z,9.70
2018-06-03T20:17:28.090Z,8.80
2018-06-03T20:19:55.445Z,9.47
2018-06-03T20:22:22.836Z,9.00
2018-06-03T20:24:50.205Z,9.73
2018-06-03T20:27:17.577Z,10.43
2018-06-03T20:29:44.945Z,9.30
2018-06-03T20:32:12.349Z,11.37
2018-06-03T20:34:39.717Z,11.97
2018-06-03T20:37:07.130Z,10.80
2018-06-03T20:39:34.513Z,10.87
2018-06-03T20:42:01.894Z,12.00
2018-06-03T20:44:29.283Z,11.70
2018-06-03T20:46:56.678Z,13.50
2018-06-03T20:49:24.093Z,12.70
2018-06-03T20:51:51.491Z,13.53
2018-06-03T20:54:19.921Z,13.80
2018-06-03T20:56:47.318Z,14.20
2018-06-03T20:59:14.694Z,13.53
2018-06-03T21:01:42.118Z,12.63
2018-06-03T21:04:09.492Z,13.27
2018-06-03T21:06:36.909Z,12.73
2018-06-03T21:09:06.458Z,12.27
2018-06-03T21:11:33.888Z,12.50
2018-06-03T21:14:01.405Z,12.57
2018-06-03T21:16:28.768Z,12.67
2018-06-03T21:18:56.158Z,14.83
2018-06-03T21:21:23.573Z,14.87
2018-06-03T21:23:50.971Z,14.30
2018-06-03T21:26:18.355Z,13.87
2018-06-03T21:28:45.738Z,13.87
2018-06-03T21:31:13.124Z,13.63
2018-06-03T21:33:40.541Z,17.43
2018-06-03T21:36:07.919Z,16.07
2018-06-03T21:38:35.333Z,18.20
2018-06-03T21:41:02.732Z,20.30
2018-06-03T21:43:30.135Z,17.87
2018-06-03T21:45:57.537Z,17.37
2018-06-03T21:48:24.925Z,21.60
2018-06-03T21:50:52.334Z,22.37
2018-06-03T21:53:19.781Z,22.47
2018-06-03T21:55:47.190Z,20.83
2018-06-03T21:58:14.589Z,24.80
2018-06-03T22:00:41.978Z,21.10
2018-06-03T22:03:09.357Z,21.23
2018-06-03T22:05:36.745Z,22.53
2018-06-03T22:08:04.176Z,22.80
2018-06-03T22:10:31.561Z,19.57
2018-06-03T22:12:58.938Z,21.63
2018-06-03T22:15:26.324Z,23.53
2018-06-03T22:17:53.710Z,22.33
2018-06-03T22:20:21.100Z,22.30
2018-06-03T22:22:48.485Z,23.00
2018-06-03T22:25:15.838Z,23.57
2018-06-03T22:27:43.204Z,28.10
2018-06-03T22:30:10.564Z,25.90
2018-06-03T22:32:37.936Z,25.23
2018-06-03T22:35:05.304Z,39.67
2018-06-03T22:37:32.708Z,26.30
2018-06-03T22:40:00.068Z,28.40
2018-06-03T22:42:27.430Z,37.47
2018-06-03T22:44:54.793Z,32.17
2018-06-03T22:47:22.161Z,31.40
2018-06-03T22:49:49.543Z,29.53
2018-06-03T22:52:16.917Z,30.57
2018-06-03T22:54:44.285Z,36.57
2018-06-03T22:57:46.588Z,23.40
2018-06-03T23:00:22.541Z,30.23
2018-06-03T23:02:55.873Z,29.43
2018-06-03T23:05:23.461Z,31.17
2018-06-03T23:07:51.373Z,29.27
2018-06-03T23:10:18.949Z,35.03
2018-06-03T23:12:46.359Z,29.43
2018-06-03T23:15:13.821Z,30.80
2018-06-03T23:17:41.917Z,37.10
2018-06-03T23:20:09.344Z,35.20
2018-06-03T23:22:36.733Z,39.43
2018-06-03T23:25:04.369Z,36.60
2018-06-03T23:27:31.796Z,29.63
2018-06-03T23:29:59.184Z,38.93
2018-06-03T23:32:26.578Z,29.20
2018-06-03T23:34:53.961Z,29.63
2018-06-03T23:37:21.390Z,29.50
2018-06-03T23:39:48.769Z,32.73
2018-06-03T23:42:16.146Z,32.37
2018-06-03T23:44:43.537Z,33.67
2018-06-03T23:47:10.920Z,31.27
2018-06-03T23:49:38.305Z,33.97
2018-06-03T23:52:05.681Z,33.20
2018-06-03T23:54:33.069Z,34.33
2018-06-03T23:57:00.485Z,31.40
2018-06-03T23:59:27.856Z,30.00
